sensor_id;sensor_type;location;lat;lon;timestamp;temperature;humidity
14727;DHT22;7454;51.256;8.176;2022-08-03T00:00:47;18.00;65.70
14727;DHT22;7454;51.256;8.176;2022-08-03T00:03:13;18.00;65.70
14727;DHT22;7454;51.256;8.176;2022-08-03T00:05:39;17.90;65.60
14727;DHT22;7454;51.256;8.176;2022-08-03T00:08:04;18.00;65.60
14727;DHT22;7454;51.256;8.176;2022-08-03T00:10:30;17.70;65.70
14727;DHT22;7454;51.256;8.176;2022-08-03T00:12:56;17.90;65.80
14727;DHT22;7454;51.256;8.176;2022-08-03T00:15:22;17.90;65.80
14727;DHT22;7454;51.256;8.176;2022-08-03T00:17:48;17.80;65.70
14727;DHT22;7454;51.256;8.176;2022-08-03T00:20:14;17.80;65.80
14727;DHT22;7454;51.256;8.176;2022-08-03T00:22:39;17.80;65.90
14727;DHT22;7454;51.256;8.176;2022-08-03T00:25:05;17.80;65.80
14727;DHT22;7454;51.256;8.176;2022-08-03T00:27:32;17.70;65.80
14727;DHT22;7454;51.256;8.176;2022-08-03T00:29:59;17.60;65.80
14727;DHT22;7454;51.256;8.176;2022-08-03T00:32:25;17.70;65.80
14727;DHT22;7454;51.256;8.176;2022-08-03T00:34:51;17.60;65.70
14727;DHT22;7454;51.256;8.176;2022-08-03T00:37:16;17.60;65.70
14727;DHT22;7454;51.256;8.176;2022-08-03T00:39:42;17.60;65.80
14727;DHT22;7454;51.256;8.176;2022-08-03T00:42:10;17.60;66.10
14727;DHT22;7454;51.256;8.176;2022-08-03T00:44:40;17.60;66.00
14727;DHT22;7454;51.256;8.176;2022-08-03T00:47:08;17.60;65.80
14727;DHT22;7454;51.256;8.176;2022-08-03T00:49:36;17.50;65.80
14727;DHT22;7454;51.256;8.176;2022-08-03T00:52:02;17.50;65.90
14727;DHT22;7454;51.256;8.176;2022-08-03T00:54:29;17.50;65.80
14727;DHT22;7454;51.256;8.176;2022-08-03T00:56:55;17.50;65.80
14727;DHT22;7454;51.256;8.176;2022-08-03T00:59:21;17.40;65.80
14727;DHT22;7454;51.256;8.176;2022-08-03T01:01:47;17.40;65.90
14727;DHT22;7454;51.256;8.176;2022-08-03T01:04:13;17.40;65.90
14727;DHT22;7454;51.256;8.176;2022-08-03T01:10:00;17.30;65.90
14727;DHT22;7454;51.256;8.176;2022-08-03T01:12:47;17.30;65.90
14727;DHT22;7454;51.256;8.176;2022-08-03T01:18:28;17.20;65.90
14727;DHT22;7454;51.256;8.176;2022-08-03T01:21:05;17.20;65.90
14727;DHT22;7454;51.256;8.176;2022-08-03T01:32:01;17.20;66.00
14727;DHT22;7454;51.256;8.176;2022-08-03T01:34:38;17.10;66.10
14727;DHT22;7454;51.256;8.176;2022-08-03T01:37:08;17.20;66.10
14727;DHT22;7454;51.256;8.176;2022-08-03T01:39:36;17.20;66.00
14727;DHT22;7454;51.256;8.176;2022-08-03T01:42:06;17.10;66.00
14727;DHT22;7454;51.256;8.176;2022-08-03T01:44:36;17.20;66.00
14727;DHT22;7454;51.256;8.176;2022-08-03T01:47:04;17.10;66.00
14727;DHT22;7454;51.256;8.176;2022-08-03T01:49:35;17.10;66.00
14727;DHT22;7454;51.256;8.176;2022-08-03T01:52:04;17.10;66.00
14727;DHT22;7454;51.256;8.176;2022-08-03T01:54:35;17.00;66.00
14727;DHT22;7454;51.256;8.176;2022-08-03T01:57:02;16.80;65.90
14727;DHT22;7454;51.256;8.176;2022-08-03T01:59:31;16.90;66.00
14727;DHT22;7454;51.256;8.176;2022-08-03T02:01:59;16.90;66.00
14727;DHT22;7454;51.256;8.176;2022-08-03T02:04:27;16.90;66.00
14727;DHT22;7454;51.256;8.176;2022-08-03T02:06:53;16.80;66.00
14727;DHT22;7454;51.256;8.176;2022-08-03T02:09:21;16.80;66.00
14727;DHT22;7454;51.256;8.176;2022-08-03T02:11:50;16.70;66.00
14727;DHT22;7454;51.256;8.176;2022-08-03T02:14:18;16.80;66.00
14727;DHT22;7454;51.256;8.176;2022-08-03T02:16:45;16.70;66.00
14727;DHT22;7454;51.256;8.176;2022-08-03T02:19:13;16.80;66.10
14727;DHT22;7454;51.256;8.176;2022-08-03T02:21:43;16.80;66.10
14727;DHT22;7454;51.256;8.176;2022-08-03T02:24:10;16.70;66.00
14727;DHT22;7454;51.256;8.176;2022-08-03T02:26:37;16.60;66.00
14727;DHT22;7454;51.256;8.176;2022-08-03T02:29:17;16.60;66.00
14727;DHT22;7454;51.256;8.176;2022-08-03T02:31:48;16.90;66.20
14727;DHT22;7454;51.256;8.176;2022-08-03T02:34:16;16.70;66.10
14727;DHT22;7454;51.256;8.176;2022-08-03T02:36:46;16.80;66.10
14727;DHT22;7454;51.256;8.176;2022-08-03T02:39:18;16.70;66.20
14727;DHT22;7454;51.256;8.176;2022-08-03T02:41:49;16.70;66.10
14727;DHT22;7454;51.256;8.176;2022-08-03T02:44:20;16.60;66.10
14727;DHT22;7454;51.256;8.176;2022-08-03T02:46:53;16.50;66.00
14727;DHT22;7454;51.256;8.176;2022-08-03T02:49:21;16.60;66.10
14727;DHT22;7454;51.256;8.176;2022-08-03T02:51:48;16.50;66.10
14727;DHT22;7454;51.256;8.176;2022-08-03T02:54:17;16.70;66.20
14727;DHT22;7454;51.256;8.176;2022-08-03T02:56:45;16.40;66.00
14727;DHT22;7454;51.256;8.176;2022-08-03T02:59:13;16.50;66.10
14727;DHT22;7454;51.256;8.176;2022-08-03T03:01:39;16.50;66.10
14727;DHT22;7454;51.256;8.176;2022-08-03T03:04:06;16.50;66.10
14727;DHT22;7454;51.256;8.176;2022-08-03T03:06:34;16.40;66.00
14727;DHT22;7454;51.256;8.176;2022-08-03T03:09:01;16.40;66.10
14727;DHT22;7454;51.256;8.176;2022-08-03T03:11:27;16.60;66.20
14727;DHT22;7454;51.256;8.176;2022-08-03T03:13:55;16.40;66.10
14727;DHT22;7454;51.256;8.176;2022-08-03T03:16:21;16.40;66.10
14727;DHT22;7454;51.256;8.176;2022-08-03T03:18:48;16.20;66.00
14727;DHT22;7454;51.256;8.176;2022-08-03T03:21:17;16.30;66.00
14727;DHT22;7454;51.256;8.176;2022-08-03T03:23:44;16.30;66.10
14727;DHT22;7454;51.256;8.176;2022-08-03T03:26:15;16.30;66.10
14727;DHT22;7454;51.256;8.176;2022-08-03T03:28:42;16.30;66.10
14727;DHT22;7454;51.256;8.176;2022-08-03T03:31:08;16.30;66.20
14727;DHT22;7454;51.256;8.176;2022-08-03T03:33:35;16.40;66.10
14727;DHT22;7454;51.256;8.176;2022-08-03T03:36:03;16.30;66.00
14727;DHT22;7454;51.256;8.176;2022-08-03T03:38:31;16.30;66.10
14727;DHT22;7454;51.256;8.176;2022-08-03T03:40:58;16.30;66.10
14727;DHT22;7454;51.256;8.176;2022-08-03T03:43:24;16.20;66.00
14727;DHT22;7454;51.256;8.176;2022-08-03T03:45:50;16.50;66.20
14727;DHT22;7454;51.256;8.176;2022-08-03T03:48:18;16.30;66.20
14727;DHT22;7454;51.256;8.176;2022-08-03T03:50:45;16.20;66.10
14727;DHT22;7454;51.256;8.176;2022-08-03T03:53:12;16.20;66.10
14727;DHT22;7454;51.256;8.176;2022-08-03T03:55:39;16.30;66.10
14727;DHT22;7454;51.256;8.176;2022-08-03T03:58:05;16.20;66.00
14727;DHT22;7454;51.256;8.176;2022-08-03T04:00:32;16.10;66.00
14727;DHT22;7454;51.256;8.176;2022-08-03T04:02:58;16.10;66.00
14727;DHT22;7454;51.256;8.176;2022-08-03T04:05:24;16.10;66.10
14727;DHT22;7454;51.256;8.176;2022-08-03T04:08:13;16.10;66.20
14727;DHT22;7454;51.256;8.176;2022-08-03T04:11:20;16.40;66.20
14727;DHT22;7454;51.256;8.176;2022-08-03T04:13:55;16.10;66.10
14727;DHT22;7454;51.256;8.176;2022-08-03T04:16:24;16.10;66.10
14727;DHT22;7454;51.256;8.176;2022-08-03T04:18:56;16.10;66.10
14727;DHT22;7454;51.256;8.176;2022-08-03T04:21:25;16.00;66.00
14727;DHT22;7454;51.256;8.176;2022-08-03T04:23:56;16.00;66.10
14727;DHT22;7454;51.256;8.176;2022-08-03T04:26:26;16.00;66.20
14727;DHT22;7454;51.256;8.176;2022-08-03T04:28:54;16.10;66.20
14727;DHT22;7454;51.256;8.176;2022-08-03T04:31:22;16.00;66.20
14727;DHT22;7454;51.256;8.176;2022-08-03T04:33:49;16.00;66.20
14727;DHT22;7454;51.256;8.176;2022-08-03T04:36:20;16.00;66.20
14727;DHT22;7454;51.256;8.176;2022-08-03T04:39:24;16.00;66.30
14727;DHT22;7454;51.256;8.176;2022-08-03T04:41:57;16.00;66.30
14727;DHT22;7454;51.256;8.176;2022-08-03T04:44:26;16.20;66.20
14727;DHT22;7454;51.256;8.176;2022-08-03T04:46:53;16.00;66.30
14727;DHT22;7454;51.256;8.176;2022-08-03T04:49:21;16.00;66.20
14727;DHT22;7454;51.256;8.176;2022-08-03T04:51:48;16.20;66.30
14727;DHT22;7454;51.256;8.176;2022-08-03T04:54:15;16.10;66.40
14727;DHT22;7454;51.256;8.176;2022-08-03T04:56:44;16.00;66.20
14727;DHT22;7454;51.256;8.176;2022-08-03T04:59:10;16.10;66.20
14727;DHT22;7454;51.256;8.176;2022-08-03T05:01:38;16.10;66.20
14727;DHT22;7454;51.256;8.176;2022-08-03T05:04:04;16.10;66.30
14727;DHT22;7454;51.256;8.176;2022-08-03T05:06:30;16.20;66.30
14727;DHT22;7454;51.256;8.176;2022-08-03T05:08:55;16.20;66.40
14727;DHT22;7454;51.256;8.176;2022-08-03T05:11:21;16.30;66.40
14727;DHT22;7454;51.256;8.176;2022-08-03T05:13:47;16.40;66.30
14727;DHT22;7454;51.256;8.176;2022-08-03T05:16:14;16.30;66.30
14727;DHT22;7454;51.256;8.176;2022-08-03T05:18:41;16.30;66.20
14727;DHT22;7454;51.256;8.176;2022-08-03T05:21:08;16.30;66.30
14727;DHT22;7454;51.256;8.176;2022-08-03T05:23:34;16.30;66.20
14727;DHT22;7454;51.256;8.176;2022-08-03T05:26:01;16.40;66.20
14727;DHT22;7454;51.256;8.176;2022-08-03T05:28:26;16.40;66.30
14727;DHT22;7454;51.256;8.176;2022-08-03T05:30:52;16.40;66.40
14727;DHT22;7454;51.256;8.176;2022-08-03T05:33:18;16.40;66.20
14727;DHT22;7454;51.256;8.176;2022-08-03T05:35:43;16.40;66.30
14727;DHT22;7454;51.256;8.176;2022-08-03T05:38:10;16.40;66.40
14727;DHT22;7454;51.256;8.176;2022-08-03T05:40:36;16.40;66.30
14727;DHT22;7454;51.256;8.176;2022-08-03T05:43:02;16.50;66.40
14727;DHT22;7454;51.256;8.176;2022-08-03T05:45:28;16.60;66.50
14727;DHT22;7454;51.256;8.176;2022-08-03T05:47:53;16.60;66.40
14727;DHT22;7454;51.256;8.176;2022-08-03T05:50:20;16.70;66.50
14727;DHT22;7454;51.256;8.176;2022-08-03T05:52:46;16.80;66.60
14727;DHT22;7454;51.256;8.176;2022-08-03T05:55:12;16.80;66.60
14727;DHT22;7454;51.256;8.176;2022-08-03T05:57:39;16.90;66.60
14727;DHT22;7454;51.256;8.176;2022-08-03T06:00:10;16.80;66.70
14727;DHT22;7454;51.256;8.176;2022-08-03T06:02:40;16.80;66.70
14727;DHT22;7454;51.256;8.176;2022-08-03T06:05:07;16.80;66.70
14727;DHT22;7454;51.256;8.176;2022-08-03T06:07:33;17.00;66.80
14727;DHT22;7454;51.256;8.176;2022-08-03T06:10:00;16.90;66.70
14727;DHT22;7454;51.256;8.176;2022-08-03T06:12:27;17.10;66.80
14727;DHT22;7454;51.256;8.176;2022-08-03T06:14:53;17.10;67.00
14727;DHT22;7454;51.256;8.176;2022-08-03T06:17:19;17.20;67.20
14727;DHT22;7454;51.256;8.176;2022-08-03T06:19:45;17.20;67.20
14727;DHT22;7454;51.256;8.176;2022-08-03T06:22:11;17.30;67.30
14727;DHT22;7454;51.256;8.176;2022-08-03T06:24:36;17.30;67.10
14727;DHT22;7454;51.256;8.176;2022-08-03T06:27:02;17.50;67.30
14727;DHT22;7454;51.256;8.176;2022-08-03T06:29:29;17.60;67.10
14727;DHT22;7454;51.256;8.176;2022-08-03T06:31:55;17.60;67.10
14727;DHT22;7454;51.256;8.176;2022-08-03T06:34:21;17.70;67.00
14727;DHT22;7454;51.256;8.176;2022-08-03T06:36:47;17.80;66.80
14727;DHT22;7454;51.256;8.176;2022-08-03T06:39:15;17.90;67.10
14727;DHT22;7454;51.256;8.176;2022-08-03T06:41:45;17.90;67.10
14727;DHT22;7454;51.256;8.176;2022-08-03T06:44:11;18.00;67.10
14727;DHT22;7454;51.256;8.176;2022-08-03T06:46:37;18.10;67.20
14727;DHT22;7454;51.256;8.176;2022-08-03T06:49:03;18.10;67.10
14727;DHT22;7454;51.256;8.176;2022-08-03T06:51:29;18.20;67.20
14727;DHT22;7454;51.256;8.176;2022-08-03T06:53:55;18.20;67.20
14727;DHT22;7454;51.256;8.176;2022-08-03T06:56:21;18.30;67.20
14727;DHT22;7454;51.256;8.176;2022-08-03T06:58:47;18.40;67.20
14727;DHT22;7454;51.256;8.176;2022-08-03T07:01:13;18.50;67.20
14727;DHT22;7454;51.256;8.176;2022-08-03T07:03:39;18.50;67.10
14727;DHT22;7454;51.256;8.176;2022-08-03T07:06:05;18.60;67.10
14727;DHT22;7454;51.256;8.176;2022-08-03T07:08:31;18.70;67.10
14727;DHT22;7454;51.256;8.176;2022-08-03T07:10:57;18.90;66.90
14727;DHT22;7454;51.256;8.176;2022-08-03T07:13:23;19.00;66.90
14727;DHT22;7454;51.256;8.176;2022-08-03T07:15:48;19.20;67.00
14727;DHT22;7454;51.256;8.176;2022-08-03T07:18:14;19.30;66.70
14727;DHT22;7454;51.256;8.176;2022-08-03T07:20:40;19.50;66.80
14727;DHT22;7454;51.256;8.176;2022-08-03T07:23:06;19.50;67.00
14727;DHT22;7454;51.256;8.176;2022-08-03T07:25:32;19.70;67.00
14727;DHT22;7454;51.256;8.176;2022-08-03T07:27:58;19.90;67.20
14727;DHT22;7454;51.256;8.176;2022-08-03T07:30:24;19.90;66.90
14727;DHT22;7454;51.256;8.176;2022-08-03T07:32:49;20.20;67.00
14727;DHT22;7454;51.256;8.176;2022-08-03T07:35:16;20.20;66.70
14727;DHT22;7454;51.256;8.176;2022-08-03T07:37:42;20.40;66.90
14727;DHT22;7454;51.256;8.176;2022-08-03T07:40:08;20.60;66.50
14727;DHT22;7454;51.256;8.176;2022-08-03T07:42:33;20.70;66.90
14727;DHT22;7454;51.256;8.176;2022-08-03T07:44:59;20.80;67.00
14727;DHT22;7454;51.256;8.176;2022-08-03T07:47:28;20.90;67.10
14727;DHT22;7454;51.256;8.176;2022-08-03T07:49:54;21.10;67.00
14727;DHT22;7454;51.256;8.176;2022-08-03T07:52:20;21.20;66.70
14727;DHT22;7454;51.256;8.176;2022-08-03T07:55:06;21.20;66.90
14727;DHT22;7454;51.256;8.176;2022-08-03T07:57:34;21.50;67.30
14727;DHT22;7454;51.256;8.176;2022-08-03T08:00:00;21.60;67.20
14727;DHT22;7454;51.256;8.176;2022-08-03T08:02:26;21.70;66.80
14727;DHT22;7454;51.256;8.176;2022-08-03T08:04:52;21.80;66.60
14727;DHT22;7454;51.256;8.176;2022-08-03T08:07:18;21.90;66.20
14727;DHT22;7454;51.256;8.176;2022-08-03T08:09:43;22.00;66.00
14727;DHT22;7454;51.256;8.176;2022-08-03T08:12:09;22.10;66.10
14727;DHT22;7454;51.256;8.176;2022-08-03T08:14:37;22.30;65.70
14727;DHT22;7454;51.256;8.176;2022-08-03T08:17:03;22.40;66.00
14727;DHT22;7454;51.256;8.176;2022-08-03T08:19:29;22.50;66.30
14727;DHT22;7454;51.256;8.176;2022-08-03T08:21:54;22.60;65.80
14727;DHT22;7454;51.256;8.176;2022-08-03T08:24:20;22.70;65.40
14727;DHT22;7454;51.256;8.176;2022-08-03T08:26:46;22.80;65.40
14727;DHT22;7454;51.256;8.176;2022-08-03T08:29:12;23.00;65.20
14727;DHT22;7454;51.256;8.176;2022-08-03T08:31:37;23.10;64.80
14727;DHT22;7454;51.256;8.176;2022-08-03T08:34:03;23.20;65.10
14727;DHT22;7454;51.256;8.176;2022-08-03T08:36:32;23.20;64.70
14727;DHT22;7454;51.256;8.176;2022-08-03T08:38:59;23.30;64.40
14727;DHT22;7454;51.256;8.176;2022-08-03T08:41:25;23.30;64.70
14727;DHT22;7454;51.256;8.176;2022-08-03T08:43:53;23.40;64.40
14727;DHT22;7454;51.256;8.176;2022-08-03T08:46:20;23.40;64.20
14727;DHT22;7454;51.256;8.176;2022-08-03T08:48:47;23.40;64.20
14727;DHT22;7454;51.256;8.176;2022-08-03T08:51:15;23.40;64.40
14727;DHT22;7454;51.256;8.176;2022-08-03T08:53:48;23.60;64.00
14727;DHT22;7454;51.256;8.176;2022-08-03T08:56:17;23.60;63.80
14727;DHT22;7454;51.256;8.176;2022-08-03T08:58:51;23.60;64.00
14727;DHT22;7454;51.256;8.176;2022-08-03T09:01:18;23.60;63.90
14727;DHT22;7454;51.256;8.176;2022-08-03T09:03:45;23.60;64.00
14727;DHT22;7454;51.256;8.176;2022-08-03T09:06:12;23.80;63.70
14727;DHT22;7454;51.256;8.176;2022-08-03T09:08:38;23.80;63.50
14727;DHT22;7454;51.256;8.176;2022-08-03T09:11:03;23.80;63.70
14727;DHT22;7454;51.256;8.176;2022-08-03T09:13:29;23.80;63.80
14727;DHT22;7454;51.256;8.176;2022-08-03T09:16:10;23.70;63.80
14727;DHT22;7454;51.256;8.176;2022-08-03T09:18:39;23.90;63.70
14727;DHT22;7454;51.256;8.176;2022-08-03T09:21:23;23.70;63.60
14727;DHT22;7454;51.256;8.176;2022-08-03T09:23:54;23.80;63.60
14727;DHT22;7454;51.256;8.176;2022-08-03T09:26:29;23.80;63.50
14727;DHT22;7454;51.256;8.176;2022-08-03T09:29:10;23.90;63.60
14727;DHT22;7454;51.256;8.176;2022-08-03T09:31:37;23.90;63.70
14727;DHT22;7454;51.256;8.176;2022-08-03T09:34:10;24.00;63.60
14727;DHT22;7454;51.256;8.176;2022-08-03T09:42:10;24.20;63.20
14727;DHT22;7454;51.256;8.176;2022-08-03T09:44:38;24.20;63.30
14727;DHT22;7454;51.256;8.176;2022-08-03T09:47:11;24.20;63.50
14727;DHT22;7454;51.256;8.176;2022-08-03T09:49:40;24.40;63.50
14727;DHT22;7454;51.256;8.176;2022-08-03T09:52:16;24.40;63.40
14727;DHT22;7454;51.256;8.176;2022-08-03T09:54:44;24.60;63.30
14727;DHT22;7454;51.256;8.176;2022-08-03T09:57:23;24.40;63.20
14727;DHT22;7454;51.256;8.176;2022-08-03T09:59:50;24.50;63.20
14727;DHT22;7454;51.256;8.176;2022-08-03T10:02:24;24.60;63.40
14727;DHT22;7454;51.256;8.176;2022-08-03T10:04:52;24.60;63.10
14727;DHT22;7454;51.256;8.176;2022-08-03T10:07:27;24.70;63.40
14727;DHT22;7454;51.256;8.176;2022-08-03T10:09:54;24.80;63.20
14727;DHT22;7454;51.256;8.176;2022-08-03T10:12:21;24.80;63.10
14727;DHT22;7454;51.256;8.176;2022-08-03T10:14:47;24.80;63.20
14727;DHT22;7454;51.256;8.176;2022-08-03T10:17:13;24.80;63.10
14727;DHT22;7454;51.256;8.176;2022-08-03T10:19:39;24.80;63.00
14727;DHT22;7454;51.256;8.176;2022-08-03T10:22:22;24.80;63.20
14727;DHT22;7454;51.256;8.176;2022-08-03T10:24:55;24.80;63.30
14727;DHT22;7454;51.256;8.176;2022-08-03T10:27:32;25.00;63.00
14727;DHT22;7454;51.256;8.176;2022-08-03T10:30:04;25.00;63.00
14727;DHT22;7454;51.256;8.176;2022-08-03T10:32:41;25.00;62.80
14727;DHT22;7454;51.256;8.176;2022-08-03T10:35:12;25.10;62.90
14727;DHT22;7454;51.256;8.176;2022-08-03T10:37:47;25.00;62.90
14727;DHT22;7454;51.256;8.176;2022-08-03T10:40:21;25.00;62.70
14727;DHT22;7454;51.256;8.176;2022-08-03T10:42:50;25.00;62.40
14727;DHT22;7454;51.256;8.176;2022-08-03T10:45:22;25.00;62.60
14727;DHT22;7454;51.256;8.176;2022-08-03T10:47:52;25.00;62.90
14727;DHT22;7454;51.256;8.176;2022-08-03T10:50:18;25.10;62.70
14727;DHT22;7454;51.256;8.176;2022-08-03T10:52:58;25.20;62.80
14727;DHT22;7454;51.256;8.176;2022-08-03T10:55:40;25.20;62.50
14727;DHT22;7454;51.256;8.176;2022-08-03T11:01:08;25.30;62.50
14727;DHT22;7454;51.256;8.176;2022-08-03T11:06:20;25.20;62.40
14727;DHT22;7454;51.256;8.176;2022-08-03T11:08:50;25.30;62.40
14727;DHT22;7454;51.256;8.176;2022-08-03T11:11:34;25.30;62.30
14727;DHT22;7454;51.256;8.176;2022-08-03T11:16:39;25.50;62.10
14727;DHT22;7454;51.256;8.176;2022-08-03T11:19:11;25.50;62.30
14727;DHT22;7454;51.256;8.176;2022-08-03T11:30:11;25.60;62.10
14727;DHT22;7454;51.256;8.176;2022-08-03T11:32:52;25.60;62.10
14727;DHT22;7454;51.256;8.176;2022-08-03T11:38:01;25.80;62.10
14727;DHT22;7454;51.256;8.176;2022-08-03T11:40:52;25.80;62.00
14727;DHT22;7454;51.256;8.176;2022-08-03T11:45:58;25.70;61.90
14727;DHT22;7454;51.256;8.176;2022-08-03T11:48:27;25.90;61.80
14727;DHT22;7454;51.256;8.176;2022-08-03T11:50:59;25.60;61.80
14727;DHT22;7454;51.256;8.176;2022-08-03T11:53:26;26.00;61.70
14727;DHT22;7454;51.256;8.176;2022-08-03T11:55:54;26.00;61.70
14727;DHT22;7454;51.256;8.176;2022-08-03T11:58:23;26.00;61.90
14727;DHT22;7454;51.256;8.176;2022-08-03T12:00:49;26.00;61.90
14727;DHT22;7454;51.256;8.176;2022-08-03T12:03:18;26.10;61.90
14727;DHT22;7454;51.256;8.176;2022-08-03T12:05:48;26.00;61.70
14727;DHT22;7454;51.256;8.176;2022-08-03T12:08:17;26.00;61.40
14727;DHT22;7454;51.256;8.176;2022-08-03T12:10:49;26.00;61.30
14727;DHT22;7454;51.256;8.176;2022-08-03T12:13:16;26.00;61.70
14727;DHT22;7454;51.256;8.176;2022-08-03T12:15:47;26.10;61.60
14727;DHT22;7454;51.256;8.176;2022-08-03T12:18:16;26.20;61.70
14727;DHT22;7454;51.256;8.176;2022-08-03T12:20:44;26.20;61.70
14727;DHT22;7454;51.256;8.176;2022-08-03T12:23:10;26.30;61.60
14727;DHT22;7454;51.256;8.176;2022-08-03T12:25:38;26.30;61.70
14727;DHT22;7454;51.256;8.176;2022-08-03T12:28:17;26.40;61.60
14727;DHT22;7454;51.256;8.176;2022-08-03T12:30:46;26.60;61.60
14727;DHT22;7454;51.256;8.176;2022-08-03T12:33:14;26.40;61.70
14727;DHT22;7454;51.256;8.176;2022-08-03T12:35:41;26.50;61.60
14727;DHT22;7454;51.256;8.176;2022-08-03T12:38:07;26.50;61.50
14727;DHT22;7454;51.256;8.176;2022-08-03T12:40:33;26.40;61.30
14727;DHT22;7454;51.256;8.176;2022-08-03T12:42:59;26.60;61.50
14727;DHT22;7454;51.256;8.176;2022-08-03T12:45:27;26.50;61.30
14727;DHT22;7454;51.256;8.176;2022-08-03T12:47:57;26.60;61.40
14727;DHT22;7454;51.256;8.176;2022-08-03T12:50:32;26.70;61.50
14727;DHT22;7454;51.256;8.176;2022-08-03T12:53:02;26.70;61.00
14727;DHT22;7454;51.256;8.176;2022-08-03T12:55:30;26.70;60.90
14727;DHT22;7454;51.256;8.176;2022-08-03T12:58:00;26.80;61.10
14727;DHT22;7454;51.256;8.176;2022-08-03T13:00:27;26.80;60.90
14727;DHT22;7454;51.256;8.176;2022-08-03T13:03:05;26.90;61.10
14727;DHT22;7454;51.256;8.176;2022-08-03T13:05:44;26.90;61.10
14727;DHT22;7454;51.256;8.176;2022-08-03T13:08:21;27.00;61.20
14727;DHT22;7454;51.256;8.176;2022-08-03T13:10:49;27.00;61.10
14727;DHT22;7454;51.256;8.176;2022-08-03T13:13:15;27.00;61.10
14727;DHT22;7454;51.256;8.176;2022-08-03T13:15:41;27.00;61.30
14727;DHT22;7454;51.256;8.176;2022-08-03T13:18:07;27.10;61.10
14727;DHT22;7454;51.256;8.176;2022-08-03T13:20:34;27.20;61.10
14727;DHT22;7454;51.256;8.176;2022-08-03T13:23:00;27.20;61.00
14727;DHT22;7454;51.256;8.176;2022-08-03T13:25:26;27.20;61.10
14727;DHT22;7454;51.256;8.176;2022-08-03T13:27:52;27.30;61.00
14727;DHT22;7454;51.256;8.176;2022-08-03T13:30:18;27.30;60.90
14727;DHT22;7454;51.256;8.176;2022-08-03T13:32:44;27.30;60.90
14727;DHT22;7454;51.256;8.176;2022-08-03T13:35:10;27.20;61.20
14727;DHT22;7454;51.256;8.176;2022-08-03T13:37:36;27.20;60.90
14727;DHT22;7454;51.256;8.176;2022-08-03T13:40:04;27.30;61.10
14727;DHT22;7454;51.256;8.176;2022-08-03T13:42:32;27.30;61.10
14727;DHT22;7454;51.256;8.176;2022-08-03T13:45:00;27.40;61.10
14727;DHT22;7454;51.256;8.176;2022-08-03T13:47:27;27.30;61.20
14727;DHT22;7454;51.256;8.176;2022-08-03T13:49:53;27.30;61.30
14727;DHT22;7454;51.256;8.176;2022-08-03T13:52:19;27.30;60.80
14727;DHT22;7454;51.256;8.176;2022-08-03T13:54:45;27.40;60.70
14727;DHT22;7454;51.256;8.176;2022-08-03T13:57:11;27.50;60.20
14727;DHT22;7454;51.256;8.176;2022-08-03T13:59:37;27.50;60.40
14727;DHT22;7454;51.256;8.176;2022-08-03T14:02:03;27.50;60.50
14727;DHT22;7454;51.256;8.176;2022-08-03T14:04:29;27.50;60.50
14727;DHT22;7454;51.256;8.176;2022-08-03T14:06:55;27.60;60.40
14727;DHT22;7454;51.256;8.176;2022-08-03T14:09:21;27.60;60.40
14727;DHT22;7454;51.256;8.176;2022-08-03T14:11:47;27.70;60.30
14727;DHT22;7454;51.256;8.176;2022-08-03T14:14:13;27.50;60.20
14727;DHT22;7454;51.256;8.176;2022-08-03T14:16:39;27.50;60.40
14727;DHT22;7454;51.256;8.176;2022-08-03T14:19:05;27.50;60.40
14727;DHT22;7454;51.256;8.176;2022-08-03T14:21:32;27.50;60.60
14727;DHT22;7454;51.256;8.176;2022-08-03T14:23:59;27.50;60.30
14727;DHT22;7454;51.256;8.176;2022-08-03T14:26:24;27.60;60.40
14727;DHT22;7454;51.256;8.176;2022-08-03T14:28:50;27.60;60.20
14727;DHT22;7454;51.256;8.176;2022-08-03T14:31:16;27.50;60.40
14727;DHT22;7454;51.256;8.176;2022-08-03T14:33:42;27.50;60.60
14727;DHT22;7454;51.256;8.176;2022-08-03T14:36:08;27.60;60.50
14727;DHT22;7454;51.256;8.176;2022-08-03T14:38:33;27.70;60.90
14727;DHT22;7454;51.256;8.176;2022-08-03T14:40:59;27.70;60.70
14727;DHT22;7454;51.256;8.176;2022-08-03T14:43:25;27.70;60.50
14727;DHT22;7454;51.256;8.176;2022-08-03T14:45:51;27.80;60.70
14727;DHT22;7454;51.256;8.176;2022-08-03T14:48:19;27.90;60.60
14727;DHT22;7454;51.256;8.176;2022-08-03T14:50:45;27.90;60.50
14727;DHT22;7454;51.256;8.176;2022-08-03T14:53:11;27.90;60.20
14727;DHT22;7454;51.256;8.176;2022-08-03T14:55:37;27.90;60.50
14727;DHT22;7454;51.256;8.176;2022-08-03T14:58:02;27.90;60.30
14727;DHT22;7454;51.256;8.176;2022-08-03T15:00:34;28.00;60.30
14727;DHT22;7454;51.256;8.176;2022-08-03T15:03:01;27.90;60.30
14727;DHT22;7454;51.256;8.176;2022-08-03T15:05:29;28.00;60.20
14727;DHT22;7454;51.256;8.176;2022-08-03T15:07:55;28.00;60.30
14727;DHT22;7454;51.256;8.176;2022-08-03T15:10:21;28.00;60.40
14727;DHT22;7454;51.256;8.176;2022-08-03T15:12:47;27.90;60.50
14727;DHT22;7454;51.256;8.176;2022-08-03T15:15:13;27.80;60.50
14727;DHT22;7454;51.256;8.176;2022-08-03T15:17:39;27.70;60.60
14727;DHT22;7454;51.256;8.176;2022-08-03T15:20:05;27.70;60.60
14727;DHT22;7454;51.256;8.176;2022-08-03T15:22:33;27.80;60.50
14727;DHT22;7454;51.256;8.176;2022-08-03T15:25:03;27.80;60.70
14727;DHT22;7454;51.256;8.176;2022-08-03T15:27:29;27.70;60.70
14727;DHT22;7454;51.256;8.176;2022-08-03T15:29:54;27.80;60.60
14727;DHT22;7454;51.256;8.176;2022-08-03T15:32:20;27.60;60.30
14727;DHT22;7454;51.256;8.176;2022-08-03T15:34:47;27.80;60.40
14727;DHT22;7454;51.256;8.176;2022-08-03T15:37:12;27.70;60.50
14727;DHT22;7454;51.256;8.176;2022-08-03T15:39:38;27.60;60.60
14727;DHT22;7454;51.256;8.176;2022-08-03T15:42:04;27.50;60.50
14727;DHT22;7454;51.256;8.176;2022-08-03T15:44:30;27.50;60.50
14727;DHT22;7454;51.256;8.176;2022-08-03T15:46:56;27.60;60.50
14727;DHT22;7454;51.256;8.176;2022-08-03T15:49:21;27.50;60.50
14727;DHT22;7454;51.256;8.176;2022-08-03T15:51:47;27.40;60.70
14727;DHT22;7454;51.256;8.176;2022-08-03T15:54:13;27.40;60.60
14727;DHT22;7454;51.256;8.176;2022-08-03T15:56:39;27.40;60.30
14727;DHT22;7454;51.256;8.176;2022-08-03T15:59:09;27.40;60.50
14727;DHT22;7454;51.256;8.176;2022-08-03T16:01:37;27.50;60.40
14727;DHT22;7454;51.256;8.176;2022-08-03T16:04:03;27.50;60.50
14727;DHT22;7454;51.256;8.176;2022-08-03T16:06:29;27.60;60.30
14727;DHT22;7454;51.256;8.176;2022-08-03T16:08:54;27.50;60.30
14727;DHT22;7454;51.256;8.176;2022-08-03T16:11:21;27.60;60.50
14727;DHT22;7454;51.256;8.176;2022-08-03T16:13:47;27.50;60.50
14727;DHT22;7454;51.256;8.176;2022-08-03T16:16:13;27.50;60.50
14727;DHT22;7454;51.256;8.176;2022-08-03T16:18:39;27.50;60.60
14727;DHT22;7454;51.256;8.176;2022-08-03T16:21:04;27.40;60.50
14727;DHT22;7454;51.256;8.176;2022-08-03T16:23:30;27.50;60.60
14727;DHT22;7454;51.256;8.176;2022-08-03T16:25:57;27.50;60.40
14727;DHT22;7454;51.256;8.176;2022-08-03T16:28:23;27.50;60.30
14727;DHT22;7454;51.256;8.176;2022-08-03T16:30:49;27.40;60.50
14727;DHT22;7454;51.256;8.176;2022-08-03T16:33:15;27.30;60.90